Terminal Aerodrome Forecast
Issued by NWS Cleveland, OH

Home | Current Version | Previous Version | Text Only | Print | Product List | Glossary Off
Versions: 1 2 3 4 5 6 7 8 9 10 11 12 13 14 15 16 17 18 19 20 21 22 23

000
FTUS41 KCLE 280400 AAB
TAFCAK
TAF AMD
KCAK 280434Z 2805/2824 27006KT P6SM BKN003 OVC007
      TEMPO 2805/2807 3SM BR OVC007
     FM280700 29008KT 3SM BR OVC006
     FM281500 33012G20KT P6SM OVC015=

USA.gov is the U.S. government's official web portal to all federal, state and local government web resources and services.